sensor_id;sensor_type;location;lat;lon;timestamp;P1;durP1;ratioP1;P2;durP2;ratioP2
6259;SDS011;3163;51.516;4.000;2024-02-26T00:01:36;0.70;;;0.70;;
6259;SDS011;3163;51.516;4.000;2024-02-26T00:04:02;0.63;;;0.53;;
6259;SDS011;3163;51.516;4.000;2024-02-26T00:06:29;0.60;;;0.60;;
6259;SDS011;3163;51.516;4.000;2024-02-26T00:08:55;0.37;;;0.37;;
6259;SDS011;3163;51.516;4.000;2024-02-26T00:11:21;1.30;;;0.80;;
6259;SDS011;3163;51.516;4.000;2024-02-26T00:13:47;0.53;;;0.53;;
6259;SDS011;3163;51.516;4.000;2024-02-26T00:16:13;1.33;;;1.20;;
6259;SDS011;3163;51.516;4.000;2024-02-26T00:18:39;1.33;;;0.67;;
6259;SDS011;3163;51.516;4.000;2024-02-26T00:21:05;0.50;;;0.50;;
6259;SDS011;3163;51.516;4.000;2024-02-26T00:23:31;0.37;;;0.37;;
6259;SDS011;3163;51.516;4.000;2024-02-26T00:25:57;0.97;;;0.70;;
6259;SDS011;3163;51.516;4.000;2024-02-26T00:28:23;0.90;;;0.90;;
6259;SDS011;3163;51.516;4.000;2024-02-26T00:30:54;0.70;;;0.53;;
6259;SDS011;3163;51.516;4.000;2024-02-26T00:33:21;1.07;;;0.80;;
6259;SDS011;3163;51.516;4.000;2024-02-26T00:35:47;2.27;;;1.30;;
6259;SDS011;3163;51.516;4.000;2024-02-26T00:38:14;0.67;;;0.67;;
6259;SDS011;3163;51.516;4.000;2024-02-26T00:40:41;2.90;;;1.63;;
6259;SDS011;3163;51.516;4.000;2024-02-26T00:43:07;1.37;;;0.90;;
6259;SDS011;3163;51.516;4.000;2024-02-26T00:45:33;1.97;;;1.30;;
6259;SDS011;3163;51.516;4.000;2024-02-26T00:47:59;0.60;;;0.60;;
6259;SDS011;3163;51.516;4.000;2024-02-26T00:50:32;0.43;;;0.43;;
6259;SDS011;3163;51.516;4.000;2024-02-26T00:52:58;0.50;;;0.50;;
6259;SDS011;3163;51.516;4.000;2024-02-26T00:55:24;0.53;;;0.53;;
6259;SDS011;3163;51.516;4.000;2024-02-26T00:57:50;0.87;;;0.80;;
6259;SDS011;3163;51.516;4.000;2024-02-26T01:00:16;1.07;;;1.03;;
6259;SDS011;3163;51.516;4.000;2024-02-26T01:02:42;0.70;;;0.70;;
6259;SDS011;3163;51.516;4.000;2024-02-26T01:05:11;0.70;;;0.47;;
6259;SDS011;3163;51.516;4.000;2024-02-26T01:07:37;0.77;;;0.77;;
6259;SDS011;3163;51.516;4.000;2024-02-26T01:10:04;0.63;;;0.63;;
6259;SDS011;3163;51.516;4.000;2024-02-26T01:12:33;3.67;;;1.10;;
6259;SDS011;3163;51.516;4.000;2024-02-26T01:15:02;2.43;;;1.07;;
6259;SDS011;3163;51.516;4.000;2024-02-26T01:17:29;1.00;;;0.97;;
6259;SDS011;3163;51.516;4.000;2024-02-26T01:19:55;0.83;;;0.60;;
6259;SDS011;3163;51.516;4.000;2024-02-26T01:22:21;0.67;;;0.67;;
6259;SDS011;3163;51.516;4.000;2024-02-26T01:24:47;1.63;;;0.80;;
6259;SDS011;3163;51.516;4.000;2024-02-26T01:27:13;1.47;;;1.20;;
6259;SDS011;3163;51.516;4.000;2024-02-26T01:29:40;0.80;;;0.80;;
6259;SDS011;3163;51.516;4.000;2024-02-26T01:32:06;1.90;;;0.97;;
6259;SDS011;3163;51.516;4.000;2024-02-26T01:34:32;0.40;;;0.40;;
6259;SDS011;3163;51.516;4.000;2024-02-26T01:36:59;0.80;;;0.80;;
6259;SDS011;3163;51.516;4.000;2024-02-26T01:39:25;0.93;;;0.50;;
6259;SDS011;3163;51.516;4.000;2024-02-26T01:41:54;1.10;;;0.83;;
6259;SDS011;3163;51.516;4.000;2024-02-26T01:44:20;1.80;;;1.47;;
6259;SDS011;3163;51.516;4.000;2024-02-26T01:46:46;0.83;;;0.67;;
6259;SDS011;3163;51.516;4.000;2024-02-26T01:49:12;1.53;;;0.83;;
6259;SDS011;3163;51.516;4.000;2024-02-26T01:51:38;1.83;;;0.97;;
6259;SDS011;3163;51.516;4.000;2024-02-26T01:54:05;0.93;;;0.93;;
6259;SDS011;3163;51.516;4.000;2024-02-26T01:56:33;1.57;;;0.70;;
6259;SDS011;3163;51.516;4.000;2024-02-26T01:59:00;0.67;;;0.67;;
6259;SDS011;3163;51.516;4.000;2024-02-26T02:01:28;1.50;;;0.93;;
6259;SDS011;3163;51.516;4.000;2024-02-26T02:03:56;1.50;;;0.97;;
6259;SDS011;3163;51.516;4.000;2024-02-26T02:06:23;0.90;;;0.90;;
6259;SDS011;3163;51.516;4.000;2024-02-26T02:08:49;1.43;;;1.33;;
6259;SDS011;3163;51.516;4.000;2024-02-26T02:11:16;2.17;;;1.07;;
6259;SDS011;3163;51.516;4.000;2024-02-26T02:13:42;2.27;;;1.10;;
6259;SDS011;3163;51.516;4.000;2024-02-26T02:16:08;0.50;;;0.50;;
6259;SDS011;3163;51.516;4.000;2024-02-26T02:18:34;0.90;;;0.90;;
6259;SDS011;3163;51.516;4.000;2024-02-26T02:21:00;0.67;;;0.67;;
6259;SDS011;3163;51.516;4.000;2024-02-26T02:23:26;0.50;;;0.50;;
6259;SDS011;3163;51.516;4.000;2024-02-26T02:25:52;0.37;;;0.33;;
6259;SDS011;3163;51.516;4.000;2024-02-26T02:28:20;0.53;;;0.53;;
6259;SDS011;3163;51.516;4.000;2024-02-26T02:30:46;0.70;;;0.70;;
6259;SDS011;3163;51.516;4.000;2024-02-26T02:33:12;0.50;;;0.50;;
6259;SDS011;3163;51.516;4.000;2024-02-26T02:35:40;0.50;;;0.50;;
6259;SDS011;3163;51.516;4.000;2024-02-26T02:38:06;0.50;;;0.50;;
6259;SDS011;3163;51.516;4.000;2024-02-26T02:40:32;0.30;;;0.30;;
6259;SDS011;3163;51.516;4.000;2024-02-26T02:42:58;0.87;;;0.87;;
6259;SDS011;3163;51.516;4.000;2024-02-26T02:45:25;1.20;;;0.70;;
6259;SDS011;3163;51.516;4.000;2024-02-26T02:47:51;0.73;;;0.60;;
6259;SDS011;3163;51.516;4.000;2024-02-26T02:50:17;2.03;;;0.80;;
6259;SDS011;3163;51.516;4.000;2024-02-26T02:52:43;1.10;;;0.80;;
6259;SDS011;3163;51.516;4.000;2024-02-26T02:55:09;2.47;;;0.97;;
6259;SDS011;3163;51.516;4.000;2024-02-26T02:57:35;0.50;;;0.50;;
6259;SDS011;3163;51.516;4.000;2024-02-26T03:00:06;4.43;;;0.90;;
6259;SDS011;3163;51.516;4.000;2024-02-26T03:02:32;0.83;;;0.80;;
6259;SDS011;3163;51.516;4.000;2024-02-26T03:05:00;0.70;;;0.60;;
6259;SDS011;3163;51.516;4.000;2024-02-26T03:07:27;0.37;;;0.37;;
6259;SDS011;3163;51.516;4.000;2024-02-26T03:09:53;0.87;;;0.40;;
6259;SDS011;3163;51.516;4.000;2024-02-26T03:12:19;0.80;;;0.80;;
6259;SDS011;3163;51.516;4.000;2024-02-26T03:14:45;0.90;;;0.87;;
6259;SDS011;3163;51.516;4.000;2024-02-26T03:17:11;1.40;;;1.27;;
6259;SDS011;3163;51.516;4.000;2024-02-26T03:19:37;5.00;;;1.73;;
6259;SDS011;3163;51.516;4.000;2024-02-26T03:22:03;0.50;;;0.50;;
6259;SDS011;3163;51.516;4.000;2024-02-26T03:24:29;0.60;;;0.60;;
6259;SDS011;3163;51.516;4.000;2024-02-26T03:26:55;1.13;;;0.50;;
6259;SDS011;3163;51.516;4.000;2024-02-26T03:29:21;0.87;;;0.80;;
6259;SDS011;3163;51.516;4.000;2024-02-26T03:31:47;0.80;;;0.80;;
6259;SDS011;3163;51.516;4.000;2024-02-26T03:34:13;0.57;;;0.47;;
6259;SDS011;3163;51.516;4.000;2024-02-26T03:36:40;0.77;;;0.77;;
6259;SDS011;3163;51.516;4.000;2024-02-26T03:39:06;0.40;;;0.40;;
6259;SDS011;3163;51.516;4.000;2024-02-26T03:41:35;0.50;;;0.50;;
6259;SDS011;3163;51.516;4.000;2024-02-26T03:44:01;2.00;;;1.30;;
6259;SDS011;3163;51.516;4.000;2024-02-26T03:46:27;0.87;;;0.87;;
6259;SDS011;3163;51.516;4.000;2024-02-26T03:48:53;5.77;;;1.50;;
6259;SDS011;3163;51.516;4.000;2024-02-26T03:51:19;0.77;;;0.77;;
6259;SDS011;3163;51.516;4.000;2024-02-26T03:53:45;1.03;;;1.00;;
6259;SDS011;3163;51.516;4.000;2024-02-26T03:56:12;0.97;;;0.83;;
6259;SDS011;3163;51.516;4.000;2024-02-26T03:58:40;0.67;;;0.67;;
6259;SDS011;3163;51.516;4.000;2024-02-26T04:01:07;2.10;;;0.77;;
6259;SDS011;3163;51.516;4.000;2024-02-26T04:03:33;1.17;;;0.80;;
6259;SDS011;3163;51.516;4.000;2024-02-26T04:05:59;0.67;;;0.50;;
6259;SDS011;3163;51.516;4.000;2024-02-26T04:08:25;1.50;;;0.80;;
6259;SDS011;3163;51.516;4.000;2024-02-26T04:10:51;1.87;;;1.03;;
6259;SDS011;3163;51.516;4.000;2024-02-26T04:13:18;0.27;;;0.27;;
6259;SDS011;3163;51.516;4.000;2024-02-26T04:15:44;0.50;;;0.50;;
6259;SDS011;3163;51.516;4.000;2024-02-26T04:18:11;0.87;;;0.87;;
6259;SDS011;3163;51.516;4.000;2024-02-26T04:20:37;3.60;;;1.07;;
6259;SDS011;3163;51.516;4.000;2024-02-26T04:23:03;1.37;;;1.30;;
6259;SDS011;3163;51.516;4.000;2024-02-26T04:25:30;0.60;;;0.60;;
6259;SDS011;3163;51.516;4.000;2024-02-26T04:27:56;3.33;;;2.13;;
6259;SDS011;3163;51.516;4.000;2024-02-26T04:30:22;0.77;;;0.77;;
6259;SDS011;3163;51.516;4.000;2024-02-26T04:32:48;0.37;;;0.37;;
6259;SDS011;3163;51.516;4.000;2024-02-26T04:35:14;0.97;;;0.77;;
6259;SDS011;3163;51.516;4.000;2024-02-26T04:37:40;4.90;;;1.30;;
6259;SDS011;3163;51.516;4.000;2024-02-26T04:40:06;0.50;;;0.50;;
6259;SDS011;3163;51.516;4.000;2024-02-26T04:42:32;0.60;;;0.60;;
6259;SDS011;3163;51.516;4.000;2024-02-26T04:44:58;1.10;;;0.57;;
6259;SDS011;3163;51.516;4.000;2024-02-26T04:47:24;0.60;;;0.60;;
6259;SDS011;3163;51.516;4.000;2024-02-26T04:49:50;2.60;;;0.80;;
6259;SDS011;3163;51.516;4.000;2024-02-26T04:52:17;1.73;;;1.47;;
6259;SDS011;3163;51.516;4.000;2024-02-26T04:54:43;1.00;;;1.00;;
6259;SDS011;3163;51.516;4.000;2024-02-26T04:57:09;0.40;;;0.40;;
6259;SDS011;3163;51.516;4.000;2024-02-26T04:59:35;0.80;;;0.80;;
6259;SDS011;3163;51.516;4.000;2024-02-26T05:02:00;0.87;;;0.87;;
6259;SDS011;3163;51.516;4.000;2024-02-26T05:04:26;1.00;;;1.00;;
6259;SDS011;3163;51.516;4.000;2024-02-26T05:06:52;1.10;;;1.10;;
6259;SDS011;3163;51.516;4.000;2024-02-26T05:09:18;0.70;;;0.70;;
6259;SDS011;3163;51.516;4.000;2024-02-26T05:11:45;3.23;;;1.33;;
6259;SDS011;3163;51.516;4.000;2024-02-26T05:14:11;1.80;;;0.60;;
6259;SDS011;3163;51.516;4.000;2024-02-26T05:16:37;0.70;;;0.70;;
6259;SDS011;3163;51.516;4.000;2024-02-26T05:19:03;0.63;;;0.63;;
6259;SDS011;3163;51.516;4.000;2024-02-26T05:21:30;3.80;;;1.47;;
6259;SDS011;3163;51.516;4.000;2024-02-26T05:23:56;0.80;;;0.80;;
6259;SDS011;3163;51.516;4.000;2024-02-26T05:26:22;1.43;;;1.23;;
6259;SDS011;3163;51.516;4.000;2024-02-26T05:28:49;3.13;;;1.77;;
6259;SDS011;3163;51.516;4.000;2024-02-26T05:31:15;1.97;;;1.30;;
6259;SDS011;3163;51.516;4.000;2024-02-26T05:33:41;2.90;;;1.07;;
6259;SDS011;3163;51.516;4.000;2024-02-26T05:36:07;0.77;;;0.50;;
6259;SDS011;3163;51.516;4.000;2024-02-26T05:38:33;1.07;;;1.07;;
6259;SDS011;3163;51.516;4.000;2024-02-26T05:40:59;1.57;;;1.43;;
6259;SDS011;3163;51.516;4.000;2024-02-26T05:43:26;1.53;;;1.03;;
6259;SDS011;3163;51.516;4.000;2024-02-26T05:45:52;0.63;;;0.63;;
6259;SDS011;3163;51.516;4.000;2024-02-26T05:48:18;1.63;;;1.37;;
6259;SDS011;3163;51.516;4.000;2024-02-26T05:50:45;1.50;;;1.40;;
6259;SDS011;3163;51.516;4.000;2024-02-26T05:53:11;1.35;;;1.33;;
6259;SDS011;3163;51.516;4.000;2024-02-26T05:55:37;1.40;;;1.30;;
6259;SDS011;3163;51.516;4.000;2024-02-26T05:58:03;1.07;;;1.07;;
6259;SDS011;3163;51.516;4.000;2024-02-26T06:00:31;1.87;;;1.70;;
6259;SDS011;3163;51.516;4.000;2024-02-26T06:02:57;1.30;;;1.20;;
6259;SDS011;3163;51.516;4.000;2024-02-26T06:05:24;6.00;;;1.30;;
6259;SDS011;3163;51.516;4.000;2024-02-26T06:07:50;4.00;;;0.90;;
6259;SDS011;3163;51.516;4.000;2024-02-26T06:10:16;2.07;;;1.87;;
6259;SDS011;3163;51.516;4.000;2024-02-26T06:12:46;0.77;;;0.77;;
6259;SDS011;3163;51.516;4.000;2024-02-26T06:15:12;1.50;;;1.40;;
6259;SDS011;3163;51.516;4.000;2024-02-26T06:17:38;0.77;;;0.77;;
6259;SDS011;3163;51.516;4.000;2024-02-26T06:20:04;1.37;;;1.27;;
6259;SDS011;3163;51.516;4.000;2024-02-26T06:22:31;1.40;;;1.30;;
6259;SDS011;3163;51.516;4.000;2024-02-26T06:24:57;1.13;;;1.00;;
6259;SDS011;3163;51.516;4.000;2024-02-26T06:27:23;1.33;;;1.23;;
6259;SDS011;3163;51.516;4.000;2024-02-26T06:29:49;2.20;;;1.20;;
6259;SDS011;3163;51.516;4.000;2024-02-26T06:32:15;1.67;;;1.47;;
6259;SDS011;3163;51.516;4.000;2024-02-26T06:34:41;3.53;;;1.70;;
6259;SDS011;3163;51.516;4.000;2024-02-26T06:37:10;1.30;;;1.20;;
6259;SDS011;3163;51.516;4.000;2024-02-26T06:39:36;1.30;;;1.17;;
6259;SDS011;3163;51.516;4.000;2024-02-26T06:42:03;3.03;;;1.73;;
6259;SDS011;3163;51.516;4.000;2024-02-26T06:44:29;0.80;;;0.80;;
6259;SDS011;3163;51.516;4.000;2024-02-26T06:46:58;1.03;;;1.03;;
6259;SDS011;3163;51.516;4.000;2024-02-26T06:49:25;1.60;;;0.60;;
6259;SDS011;3163;51.516;4.000;2024-02-26T06:51:51;2.30;;;0.63;;
6259;SDS011;3163;51.516;4.000;2024-02-26T06:54:17;1.70;;;1.57;;
6259;SDS011;3163;51.516;4.000;2024-02-26T06:56:43;1.27;;;1.17;;
6259;SDS011;3163;51.516;4.000;2024-02-26T06:59:09;2.17;;;1.70;;
6259;SDS011;3163;51.516;4.000;2024-02-26T07:01:35;1.77;;;1.40;;
6259;SDS011;3163;51.516;4.000;2024-02-26T07:04:01;2.43;;;0.93;;
6259;SDS011;3163;51.516;4.000;2024-02-26T07:06:27;0.97;;;0.90;;
6259;SDS011;3163;51.516;4.000;2024-02-26T07:08:53;1.63;;;1.53;;
6259;SDS011;3163;51.516;4.000;2024-02-26T07:11:19;1.00;;;1.00;;
6259;SDS011;3163;51.516;4.000;2024-02-26T07:13:46;0.90;;;0.90;;
6259;SDS011;3163;51.516;4.000;2024-02-26T07:16:12;1.80;;;1.60;;
6259;SDS011;3163;51.516;4.000;2024-02-26T07:18:41;2.57;;;1.37;;
6259;SDS011;3163;51.516;4.000;2024-02-26T07:21:27;1.73;;;1.63;;
6259;SDS011;3163;51.516;4.000;2024-02-26T07:23:53;1.80;;;1.20;;
6259;SDS011;3163;51.516;4.000;2024-02-26T07:26:19;1.47;;;1.27;;
6259;SDS011;3163;51.516;4.000;2024-02-26T07:28:45;4.30;;;1.90;;
6259;SDS011;3163;51.516;4.000;2024-02-26T07:31:11;2.53;;;1.60;;
6259;SDS011;3163;51.516;4.000;2024-02-26T07:33:37;2.63;;;1.77;;
6259;SDS011;3163;51.516;4.000;2024-02-26T07:36:03;4.57;;;2.27;;
6259;SDS011;3163;51.516;4.000;2024-02-26T07:38:29;2.00;;;1.40;;
6259;SDS011;3163;51.516;4.000;2024-02-26T07:40:55;2.30;;;2.10;;
6259;SDS011;3163;51.516;4.000;2024-02-26T07:43:22;1.50;;;1.40;;
6259;SDS011;3163;51.516;4.000;2024-02-26T07:45:48;4.13;;;1.83;;
6259;SDS011;3163;51.516;4.000;2024-02-26T07:48:14;1.93;;;1.63;;
6259;SDS011;3163;51.516;4.000;2024-02-26T07:50:40;2.90;;;2.67;;
6259;SDS011;3163;51.516;4.000;2024-02-26T07:53:06;2.50;;;2.30;;
6259;SDS011;3163;51.516;4.000;2024-02-26T07:55:32;2.20;;;1.43;;
6259;SDS011;3163;51.516;4.000;2024-02-26T07:57:58;2.17;;;1.97;;
6259;SDS011;3163;51.516;4.000;2024-02-26T08:00:25;5.23;;;2.33;;
6259;SDS011;3163;51.516;4.000;2024-02-26T08:02:53;3.27;;;2.97;;
6259;SDS011;3163;51.516;4.000;2024-02-26T08:05:19;3.73;;;3.17;;
6259;SDS011;3163;51.516;4.000;2024-02-26T08:07:45;4.30;;;3.03;;
6259;SDS011;3163;51.516;4.000;2024-02-26T08:10:11;5.53;;;3.93;;
6259;SDS011;3163;51.516;4.000;2024-02-26T08:12:37;3.20;;;2.60;;
6259;SDS011;3163;51.516;4.000;2024-02-26T08:15:03;5.97;;;4.03;;
6259;SDS011;3163;51.516;4.000;2024-02-26T08:17:29;4.77;;;3.77;;
6259;SDS011;3163;51.516;4.000;2024-02-26T08:19:57;2.90;;;2.23;;
6259;SDS011;3163;51.516;4.000;2024-02-26T08:22:23;5.50;;;3.47;;
6259;SDS011;3163;51.516;4.000;2024-02-26T08:24:49;4.03;;;3.30;;
6259;SDS011;3163;51.516;4.000;2024-02-26T08:27:15;3.73;;;2.50;;
6259;SDS011;3163;51.516;4.000;2024-02-26T08:29:42;6.90;;;3.70;;
6259;SDS011;3163;51.516;4.000;2024-02-26T08:32:08;5.33;;;4.03;;
6259;SDS011;3163;51.516;4.000;2024-02-26T08:34:34;6.70;;;4.40;;
6259;SDS011;3163;51.516;4.000;2024-02-26T08:37:00;5.00;;;3.43;;
6259;SDS011;3163;51.516;4.000;2024-02-26T08:39:26;5.47;;;3.73;;
6259;SDS011;3163;51.516;4.000;2024-02-26T08:41:52;6.73;;;3.87;;
6259;SDS011;3163;51.516;4.000;2024-02-26T08:44:18;5.83;;;4.20;;
6259;SDS011;3163;51.516;4.000;2024-02-26T08:46:44;5.37;;;3.70;;
6259;SDS011;3163;51.516;4.000;2024-02-26T08:49:10;5.67;;;4.57;;
6259;SDS011;3163;51.516;4.000;2024-02-26T08:51:41;3.83;;;3.10;;
6259;SDS011;3163;51.516;4.000;2024-02-26T08:54:08;4.07;;;2.73;;
6259;SDS011;3163;51.516;4.000;2024-02-26T08:56:34;4.77;;;3.97;;
6259;SDS011;3163;51.516;4.000;2024-02-26T08:58:59;6.27;;;4.67;;
6259;SDS011;3163;51.516;4.000;2024-02-26T09:01:28;8.17;;;5.50;;
6259;SDS011;3163;51.516;4.000;2024-02-26T09:03:54;11.53;;;5.60;;
6259;SDS011;3163;51.516;4.000;2024-02-26T09:06:21;7.47;;;5.40;;
6259;SDS011;3163;51.516;4.000;2024-02-26T09:08:47;6.67;;;5.50;;
6259;SDS011;3163;51.516;4.000;2024-02-26T09:11:13;8.20;;;6.00;;
6259;SDS011;3163;51.516;4.000;2024-02-26T09:13:39;9.40;;;6.17;;
6259;SDS011;3163;51.516;4.000;2024-02-26T09:16:05;8.53;;;6.17;;
6259;SDS011;3163;51.516;4.000;2024-02-26T09:18:31;7.20;;;4.60;;
6259;SDS011;3163;51.516;4.000;2024-02-26T09:20:57;6.23;;;5.13;;
6259;SDS011;3163;51.516;4.000;2024-02-26T09:23:23;7.97;;;5.33;;
6259;SDS011;3163;51.516;4.000;2024-02-26T09:25:49;8.70;;;5.03;;
6259;SDS011;3163;51.516;4.000;2024-02-26T09:28:15;9.30;;;5.20;;
6259;SDS011;3163;51.516;4.000;2024-02-26T09:30:42;7.50;;;5.63;;
6259;SDS011;3163;51.516;4.000;2024-02-26T09:33:09;8.93;;;5.90;;
6259;SDS011;3163;51.516;4.000;2024-02-26T09:35:35;5.83;;;4.70;;
6259;SDS011;3163;51.516;4.000;2024-02-26T09:38:01;7.67;;;6.07;;
6259;SDS011;3163;51.516;4.000;2024-02-26T09:40:27;4.80;;;4.40;;
6259;SDS011;3163;51.516;4.000;2024-02-26T09:42:55;4.47;;;3.07;;
6259;SDS011;3163;51.516;4.000;2024-02-26T09:45:22;7.60;;;5.77;;
6259;SDS011;3163;51.516;4.000;2024-02-26T09:47:51;7.90;;;5.63;;
6259;SDS011;3163;51.516;4.000;2024-02-26T09:50:17;7.73;;;5.03;;
6259;SDS011;3163;51.516;4.000;2024-02-26T09:52:47;8.37;;;5.13;;
6259;SDS011;3163;51.516;4.000;2024-02-26T09:55:13;3.70;;;3.23;;
6259;SDS011;3163;51.516;4.000;2024-02-26T09:57:40;8.07;;;4.87;;
6259;SDS011;3163;51.516;4.000;2024-02-26T10:00:08;6.43;;;5.63;;
6259;SDS011;3163;51.516;4.000;2024-02-26T10:02:36;5.60;;;4.73;;
6259;SDS011;3163;51.516;4.000;2024-02-26T10:05:04;8.97;;;5.33;;
6259;SDS011;3163;51.516;4.000;2024-02-26T10:07:30;3.93;;;3.53;;
6259;SDS011;3163;51.516;4.000;2024-02-26T10:09:56;4.87;;;4.37;;
6259;SDS011;3163;51.516;4.000;2024-02-26T10:12:22;4.57;;;3.97;;
6259;SDS011;3163;51.516;4.000;2024-02-26T10:14:50;4.30;;;3.90;;
6259;SDS011;3163;51.516;4.000;2024-02-26T10:17:17;4.87;;;4.30;;
6259;SDS011;3163;51.516;4.000;2024-02-26T10:19:44;6.63;;;3.80;;
6259;SDS011;3163;51.516;4.000;2024-02-26T12:42:53;3.83;;;1.60;;
6259;SDS011;3163;51.516;4.000;2024-02-26T12:45:20;3.00;;;1.50;;
6259;SDS011;3163;51.516;4.000;2024-02-26T12:47:46;1.53;;;1.47;;
6259;SDS011;3163;51.516;4.000;2024-02-26T12:50:14;4.37;;;1.57;;
6259;SDS011;3163;51.516;4.000;2024-02-26T12:52:44;2.57;;;1.70;;
6259;SDS011;3163;51.516;4.000;2024-02-26T12:55:17;3.53;;;1.90;;
6259;SDS011;3163;51.516;4.000;2024-02-26T12:57:44;2.57;;;1.63;;
6259;SDS011;3163;51.516;4.000;2024-02-26T13:00:14;1.33;;;1.23;;
6259;SDS011;3163;51.516;4.000;2024-02-26T13:02:41;1.37;;;1.27;;
6259;SDS011;3163;51.516;4.000;2024-02-26T13:05:10;1.80;;;1.08;;
6259;SDS011;3163;51.516;4.000;2024-02-26T13:07:40;2.73;;;1.90;;
6259;SDS011;3163;51.516;4.000;2024-02-26T13:10:07;2.53;;;2.00;;
6259;SDS011;3163;51.516;4.000;2024-02-26T13:12:33;1.60;;;1.50;;
6259;SDS011;3163;51.516;4.000;2024-02-26T13:15:00;2.37;;;1.57;;
6259;SDS011;3163;51.516;4.000;2024-02-26T13:17:26;2.43;;;1.90;;
6259;SDS011;3163;51.516;4.000;2024-02-26T13:19:53;1.53;;;1.43;;
6259;SDS011;3163;51.516;4.000;2024-02-26T13:22:22;2.17;;;1.97;;
6259;SDS011;3163;51.516;4.000;2024-02-26T13:24:55;2.67;;;2.00;;
6259;SDS011;3163;51.516;4.000;2024-02-26T13:27:24;2.60;;;1.80;;
6259;SDS011;3163;51.516;4.000;2024-02-26T13:30:09;1.90;;;1.80;;
6259;SDS011;3163;51.516;4.000;2024-02-26T13:32:37;4.43;;;2.07;;
6259;SDS011;3163;51.516;4.000;2024-02-26T13:35:10;3.63;;;1.87;;
6259;SDS011;3163;51.516;4.000;2024-02-26T13:37:36;2.97;;;2.27;;
6259;SDS011;3163;51.516;4.000;2024-02-26T13:40:06;1.80;;;1.70;;
6259;SDS011;3163;51.516;4.000;2024-02-26T13:42:33;2.70;;;1.97;;
6259;SDS011;3163;51.516;4.000;2024-02-26T13:44:59;2.00;;;1.90;;
6259;SDS011;3163;51.516;4.000;2024-02-26T13:47:25;2.17;;;1.57;;
6259;SDS011;3163;51.516;4.000;2024-02-26T13:49:52;1.67;;;1.57;;
6259;SDS011;3163;51.516;4.000;2024-02-26T13:54:45;2.33;;;1.80;;
6259;SDS011;3163;51.516;4.000;2024-02-26T13:57:12;2.10;;;1.80;;
6259;SDS011;3163;51.516;4.000;2024-02-26T13:59:38;3.53;;;1.97;;
6259;SDS011;3163;51.516;4.000;2024-02-26T14:02:07;1.70;;;1.60;;
6259;SDS011;3163;51.516;4.000;2024-02-26T14:04:33;2.07;;;1.93;;
6259;SDS011;3163;51.516;4.000;2024-02-26T14:07:00;1.73;;;1.63;;
6259;SDS011;3163;51.516;4.000;2024-02-26T14:09:26;4.57;;;2.20;;
6259;SDS011;3163;51.516;4.000;2024-02-26T14:11:52;2.33;;;1.73;;
6259;SDS011;3163;51.516;4.000;2024-02-26T14:14:18;2.10;;;2.00;;
6259;SDS011;3163;51.516;4.000;2024-02-26T14:16:44;2.43;;;1.90;;
6259;SDS011;3163;51.516;4.000;2024-02-26T14:19:10;1.70;;;1.60;;
6259;SDS011;3163;51.516;4.000;2024-02-26T14:21:36;1.37;;;1.30;;
6259;SDS011;3163;51.516;4.000;2024-02-26T14:24:03;1.37;;;1.27;;
6259;SDS011;3163;51.516;4.000;2024-02-26T14:26:29;3.47;;;1.83;;
6259;SDS011;3163;51.516;4.000;2024-02-26T14:28:55;1.23;;;1.03;;
6259;SDS011;3163;51.516;4.000;2024-02-26T14:31:21;1.20;;;1.10;;
6259;SDS011;3163;51.516;4.000;2024-02-26T14:33:47;1.90;;;1.80;;
6259;SDS011;3163;51.516;4.000;2024-02-26T14:36:17;2.90;;;1.27;;
6259;SDS011;3163;51.516;4.000;2024-02-26T14:38:44;4.07;;;1.63;;
6259;SDS011;3163;51.516;4.000;2024-02-26T14:41:10;1.03;;;1.03;;
6259;SDS011;3163;51.516;4.000;2024-02-26T14:43:36;1.20;;;1.10;;
6259;SDS011;3163;51.516;4.000;2024-02-26T14:46:02;1.70;;;1.60;;
6259;SDS011;3163;51.516;4.000;2024-02-26T14:48:28;2.67;;;1.80;;
6259;SDS011;3163;51.516;4.000;2024-02-26T14:50:54;2.03;;;1.67;;
6259;SDS011;3163;51.516;4.000;2024-02-26T14:53:20;1.67;;;1.57;;
6259;SDS011;3163;51.516;4.000;2024-02-26T14:55:46;1.50;;;1.40;;
6259;SDS011;3163;51.516;4.000;2024-02-26T14:58:12;3.47;;;1.67;;
6259;SDS011;3163;51.516;4.000;2024-02-26T15:00:39;2.00;;;1.90;;
6259;SDS011;3163;51.516;4.000;2024-02-26T15:03:05;1.70;;;1.60;;
6259;SDS011;3163;51.516;4.000;2024-02-26T15:05:31;1.63;;;1.53;;
6259;SDS011;3163;51.516;4.000;2024-02-26T15:07:58;1.80;;;1.50;;
6259;SDS011;3163;51.516;4.000;2024-02-26T15:10:24;1.47;;;1.13;;
6259;SDS011;3163;51.516;4.000;2024-02-26T15:12:50;1.57;;;1.47;;
6259;SDS011;3163;51.516;4.000;2024-02-26T15:15:19;1.90;;;1.20;;
6259;SDS011;3163;51.516;4.000;2024-02-26T15:17:46;1.50;;;1.40;;
6259;SDS011;3163;51.516;4.000;2024-02-26T15:20:13;1.40;;;1.30;;
6259;SDS011;3163;51.516;4.000;2024-02-26T15:22:40;1.50;;;1.40;;
6259;SDS011;3163;51.516;4.000;2024-02-26T15:25:06;3.23;;;1.63;;
6259;SDS011;3163;51.516;4.000;2024-02-26T15:27:32;1.60;;;1.47;;
6259;SDS011;3163;51.516;4.000;2024-02-26T15:29:59;3.67;;;1.63;;
6259;SDS011;3163;51.516;4.000;2024-02-26T15:32:25;1.57;;;1.47;;
6259;SDS011;3163;51.516;4.000;2024-02-26T15:34:52;1.73;;;1.17;;
6259;SDS011;3163;51.516;4.000;2024-02-26T15:37:18;2.20;;;1.43;;
6259;SDS011;3163;51.516;4.000;2024-02-26T15:39:44;1.80;;;1.50;;
6259;SDS011;3163;51.516;4.000;2024-02-26T15:42:11;1.30;;;1.20;;
6259;SDS011;3163;51.516;4.000;2024-02-26T15:44:37;3.23;;;1.43;;
6259;SDS011;3163;51.516;4.000;2024-02-26T15:47:04;2.10;;;1.07;;
6259;SDS011;3163;51.516;4.000;2024-02-26T15:49:31;1.17;;;1.07;;
6259;SDS011;3163;51.516;4.000;2024-02-26T15:51:57;1.60;;;1.03;;
6259;SDS011;3163;51.516;4.000;2024-02-26T15:54:23;2.97;;;1.30;;
6259;SDS011;3163;51.516;4.000;2024-02-26T15:56:49;1.23;;;1.13;;
6259;SDS011;3163;51.516;4.000;2024-02-26T15:59:15;2.07;;;1.47;;
6259;SDS011;3163;51.516;4.000;2024-02-26T16:01:41;3.80;;;1.40;;
6259;SDS011;3163;51.516;4.000;2024-02-26T16:04:08;1.10;;;1.00;;
6259;SDS011;3163;51.516;4.000;2024-02-26T16:09:00;0.47;;;0.47;;
6259;SDS011;3163;51.516;4.000;2024-02-26T16:11:26;0.83;;;0.67;;
6259;SDS011;3163;51.516;4.000;2024-02-26T16:13:55;1.00;;;1.00;;
6259;SDS011;3163;51.516;4.000;2024-02-26T16:16:23;2.43;;;1.13;;
6259;SDS011;3163;51.516;4.000;2024-02-26T16:18:53;3.60;;;0.80;;
6259;SDS011;3163;51.516;4.000;2024-02-26T16:21:19;1.10;;;1.10;;
6259;SDS011;3163;51.516;4.000;2024-02-26T16:23:45;0.70;;;0.70;;
6259;SDS011;3163;51.516;4.000;2024-02-26T16:26:11;1.07;;;1.07;;
6259;SDS011;3163;51.516;4.000;2024-02-26T16:28:37;2.83;;;0.90;;
6259;SDS011;3163;51.516;4.000;2024-02-26T16:31:03;0.93;;;0.93;;
6259;SDS011;3163;51.516;4.000;2024-02-26T16:33:29;1.23;;;1.13;;
6259;SDS011;3163;51.516;4.000;2024-02-26T16:35:55;1.27;;;1.00;;
6259;SDS011;3163;51.516;4.000;2024-02-26T16:38:21;2.17;;;0.50;;
6259;SDS011;3163;51.516;4.000;2024-02-26T16:40:48;1.03;;;1.00;;
6259;SDS011;3163;51.516;4.000;2024-02-26T16:43:14;1.00;;;0.90;;
6259;SDS011;3163;51.516;4.000;2024-02-26T16:45:40;1.50;;;1.37;;
6259;SDS011;3163;51.516;4.000;2024-02-26T16:48:06;1.80;;;0.90;;
6259;SDS011;3163;51.516;4.000;2024-02-26T16:50:32;1.30;;;0.63;;
6259;SDS011;3163;51.516;4.000;2024-02-26T16:52:58;1.50;;;1.40;;
6259;SDS011;3163;51.516;4.000;2024-02-26T16:55:24;3.17;;;0.93;;
6259;SDS011;3163;51.516;4.000;2024-02-26T16:57:52;0.63;;;0.63;;
6259;SDS011;3163;51.516;4.000;2024-02-26T17:00:18;0.97;;;0.97;;
6259;SDS011;3163;51.516;4.000;2024-02-26T17:02:45;1.03;;;1.03;;
6259;SDS011;3163;51.516;4.000;2024-02-26T17:05:13;13.33;;;1.20;;
6259;SDS011;3163;51.516;4.000;2024-02-26T17:07:40;2.50;;;1.13;;
6259;SDS011;3163;51.516;4.000;2024-02-26T17:10:09;1.00;;;0.90;;
6259;SDS011;3163;51.516;4.000;2024-02-26T17:12:35;1.87;;;1.20;;
6259;SDS011;3163;51.516;4.000;2024-02-26T17:15:01;1.30;;;1.20;;
6259;SDS011;3163;51.516;4.000;2024-02-26T17:17:27;1.20;;;1.10;;
6259;SDS011;3163;51.516;4.000;2024-02-26T17:19:53;1.13;;;0.80;;
6259;SDS011;3163;51.516;4.000;2024-02-26T17:22:20;2.37;;;1.20;;
6259;SDS011;3163;51.516;4.000;2024-02-26T17:24:46;1.80;;;1.20;;
6259;SDS011;3163;51.516;4.000;2024-02-26T17:27:12;1.00;;;0.83;;
6259;SDS011;3163;51.516;4.000;2024-02-26T17:29:38;1.37;;;1.20;;
6259;SDS011;3163;51.516;4.000;2024-02-26T17:32:04;1.63;;;1.20;;
6259;SDS011;3163;51.516;4.000;2024-02-26T17:34:30;1.30;;;1.17;;
6259;SDS011;3163;51.516;4.000;2024-02-26T17:36:56;2.10;;;1.30;;